Impacts TAF Board INFO
FOR SITUATIONAL AWARENESS. NOT TO BE USED FOR FLIGHT PLANNING PURPOSES.
IDs:

KLGA - New York/La Guardia, NY, US

Issued at 0238 UTC 19 Feb 2018
Updated at 0332 UTC 19 Feb 2018
Potential Impact None Slight Moderate High
Time<<20/04Z 20/05Z 20/06Z 20/07Z 20/08Z 20/09Z 20/10Z 20/11Z 20/12Z 20/13Z 20/14Z 20/15Z 20/16Z
Type PRVL PRVL
VIS 6 5
CIG 20 20
Cover OVC BKN
FltCat MVFR MVFR
WX -SHRA BR BR
WDir 180 200
WSpd 7 6
WGst -- --

Raw TAF
KLGA 190238Z 1903/2006 VRB04KT P6SM SCT250
  FM190900 15006KT P6SM BKN250
  FM191500 17009KT P6SM SCT120 BKN250
  FM192000 17009KT P6SM FEW025 BKN050
  FM192300 18007KT 6SM -SHRA BR BKN020 OVC040
  FM200500 20006KT 5SM BR BKN020


METAR Board
Radar Display
Forecast Discussion

FOR SITUATIONAL AWARENESS. NOT TO BE USED FOR FLIGHT PLANNING PURPOSES.